Time;durP1;ratioP1;P1;durP2;ratioP2;P2;SDS_P1;SDS_P2;PMS_P1;PMS_P2;Temp;Humidity;BMP_temperature;BMP_pressure;BME280_temperature;BME280_humidity;BME280_pressure;Samples;Min_cycle;Max_cycle;Signal;HPM_P1;HPM_P2
2023/06/04 00:00:22;;;;;;;8.43;1.83;;;;;;;-146.25;94.18;52025.53;2087448;28;37415;-69
2023/06/04 00:01:24;;;;;;;5.57;1.75;;;;;;;-146.25;94.13;52045.81;2087910;28;32211;-69
2023/06/04 00:02:26;;;;;;;5.88;1.70;;;;;;;-146.25;94.23;52039.75;2087406;28;40038;-69
2023/06/04 00:03:28;;;;;;;5.43;1.45;;;;;;;-146.25;95.32;52051.91;2088096;28;32729;-69
2023/06/04 00:04:33;;;;;;;9.85;1.77;;;;;;;-146.25;95.24;52074.22;2087297;28;35858;-68
2023/06/04 00:05:35;;;;;;;5.93;1.50;;;;;;;-146.25;95.78;52060.00;2087518;28;41007;-70
2023/06/04 00:06:36;;;;;;;4.70;1.50;;;;;;;-146.25;94.52;52072.19;2088294;28;20045;-68
2023/06/04 00:07:41;;;;;;;6.88;1.45;;;;;;;-146.25;95.21;52112.72;2087882;28;38592;-68
2023/06/04 00:08:43;;;;;;;6.60;1.10;;;;;;;-146.25;95.28;52058.00;2087480;28;30861;-70
2023/06/04 00:09:46;;;;;;;3.95;1.50;;;;;;;-146.25;95.27;52064.06;2095915;28;20122;-69
2023/06/04 00:10:49;;;;;;;6.88;1.50;;;;;;;-146.25;94.92;52084.34;2095133;28;34692;-69
2023/06/04 00:11:51;;;;;;;4.50;1.25;;;;;;;-146.25;95.28;52055.97;2087281;28;20128;-69
2023/06/04 00:12:53;;;;;;;5.32;0.90;;;;;;;-146.25;95.13;52025.53;2087367;28;38700;-69
2023/06/04 00:13:54;;;;;;;5.82;1.30;;;;;;;-146.25;96.00;52084.34;2088042;28;30032;-70
2023/06/04 00:14:56;;;;;;;7.20;1.60;;;;;;;-146.25;95.52;52033.66;2088182;28;20759;-70
2023/06/04 00:16:00;;;;;;;7.47;1.50;;;;;;;-146.25;95.57;52047.84;2088729;28;20083;-70
2023/06/04 00:17:02;;;;;;;6.40;1.55;;;;;;;-146.25;96.68;52013.38;2087771;28;35742;-70
2023/06/04 00:18:06;;;;;;;6.90;1.85;;;;;;;-146.25;95.83;52070.16;2088412;28;20038;-71
2023/06/04 00:19:09;;;;;;;6.82;1.95;;;;;;;-146.25;96.42;51995.13;2084189;28;37968;-70
2023/06/04 00:20:14;;;;;;;7.97;1.67;;;;;;;-146.25;96.74;52064.06;2087598;28;20030;-70
2023/06/04 00:21:15;;;;;;;7.35;1.77;;;;;;;-146.25;96.51;52064.06;2086161;28;38444;-71
2023/06/04 00:22:18;;;;;;;5.85;1.48;;;;;;;-146.25;97.07;52060.00;2079685;28;36408;-69
2023/06/04 00:23:20;;;;;;;7.15;2.05;;;;;;;-146.25;96.59;52035.69;2079434;28;34495;-69
2023/06/04 00:24:22;;;;;;;6.38;1.52;;;;;;;-146.25;95.89;52015.41;2079769;28;35681;-69
2023/06/04 00:25:23;;;;;;;6.32;1.90;;;;;;;-146.25;97.44;52035.69;2080329;28;20030;-69
2023/06/04 00:26:25;;;;;;;6.57;1.70;;;;;;;-146.25;96.97;52062.03;2079437;28;38083;-69
2023/06/04 00:27:27;;;;;;;5.07;1.70;;;;;;;-146.25;96.61;52047.84;2079281;28;35760;-70
2023/06/04 00:28:29;;;;;;;4.95;1.50;;;;;;;-146.25;96.07;52051.91;2080320;28;20038;-70
2023/06/04 00:29:31;;;;;;;9.35;1.30;;;;;;;-146.25;96.85;52062.03;2079476;28;36623;-69
2023/06/04 00:30:32;;;;;;;6.05;1.70;;;;;;;-146.25;96.45;52078.25;2079533;28;26758;-70
2023/06/04 00:31:35;;;;;;;8.73;1.58;;;;;;;-146.25;97.71;52064.06;2079285;28;20929;-68
2023/06/04 00:32:37;;;;;;;6.88;1.90;;;;;;;-146.25;97.52;52043.78;2079194;28;24245;-70
2023/06/04 00:33:39;;;;;;;7.95;2.00;;;;;;;-146.25;97.01;52096.50;2079492;28;32957;-71
2023/06/04 00:34:41;;;;;;;6.72;1.80;;;;;;;-146.25;97.73;52076.22;2079972;28;20042;-70
2023/06/04 00:35:42;;;;;;;5.68;1.70;;;;;;;-146.25;97.70;52037.72;2078371;28;33123;-70
2023/06/04 00:36:44;;;;;;;6.32;1.73;;;;;;;-146.25;97.43;52058.00;2079646;28;28304;-70
2023/06/04 00:37:46;;;;;;;6.25;1.75;;;;;;;-146.25;98.12;52076.22;2080618;28;26981;-69
2023/06/04 00:38:50;;;;;;;6.15;1.50;;;;;;;-146.25;97.74;52033.66;2081409;28;28216;-70
2023/06/04 00:39:53;;;;;;;5.25;1.63;;;;;;;-146.25;97.99;52068.13;2081106;28;20548;-70
2023/06/04 00:40:54;;;;;;;7.30;1.95;;;;;;;-146.25;97.86;52031.63;2080893;28;32086;-69
2023/06/04 00:41:56;;;;;;;5.88;1.58;;;;;;;-146.25;98.14;52051.91;2080804;28;24575;-70
2023/06/04 00:42:58;;;;;;;9.40;1.77;;;;;;;-146.25;99.36;52086.38;2080858;28;20107;-67
2023/06/04 00:44:01;;;;;;;5.57;1.58;;;;;;;-146.25;99.26;52029.59;2080462;28;30106;-69
2023/06/04 00:45:05;;;;;;;6.00;1.77;;;;;;;-146.25;99.84;52043.78;2081468;28;20046;-69
2023/06/04 00:46:08;;;;;;;3.97;1.60;;;;;;;-146.25;98.74;52051.91;2080885;28;36223;-69
2023/06/04 00:47:20;;;;;;;6.57;1.67;;;;;;;-146.25;99.34;52074.22;2081285;28;25842;-68
2023/06/04 00:48:23;;;;;;;7.82;1.95;;;;;;;-146.25;99.88;52051.91;2079800;28;37023;-70
2023/06/04 00:49:29;;;;;;;8.43;1.70;;;;;;;-146.25;99.72;52074.22;2079877;28;31560;-70
2023/06/04 00:50:35;;;;;;;6.75;2.08;;;;;;;-146.25;99.92;52090.44;2081410;28;20112;-70
2023/06/04 00:51:38;;;;;;;6.40;2.00;;;;;;;-146.25;100.00;52084.34;2081039;28;20042;-70
2023/06/04 00:52:42;;;;;;;5.40;2.00;;;;;;;-146.25;100.00;52062.03;2080866;28;31886;-69
2023/06/04 00:53:44;;;;;;;7.38;1.88;;;;;;;-146.25;99.13;52047.84;2080618;28;20050;-69
2023/06/04 00:54:46;;;;;;;5.90;1.98;;;;;;;-146.25;99.42;52064.06;2080918;28;20131;-69
2023/06/04 00:55:48;;;;;;;6.10;2.13;;;;;;;-146.25;99.86;52062.03;2088424;28;20050;-68
2023/06/04 00:56:50;;;;;;;8.07;2.30;;;;;;;-146.25;100.00;52066.09;2081618;28;20089;-70
2023/06/04 00:57:51;;;;;;;10.00;2.13;;;;;;;-146.25;100.00;52051.91;2080973;28;26738;-68
2023/06/04 00:58:55;;;;;;;5.10;2.10;;;;;;;-146.25;99.87;52070.16;2081155;28;30779;-69
2023/06/04 00:59:57;;;;;;;7.25;1.85;;;;;;;-146.25;99.85;52086.38;2080860;28;31844;-68
2023/06/04 01:01:05;;;;;;;8.52;2.15;;;;;;;-146.25;100.00;52102.59;2080553;28;20139;-68
2023/06/04 01:02:19;;;;;;;5.80;1.88;;;;;;;-146.25;100.00;52062.03;2072704;28;34166;-69
2023/06/04 01:03:29;;;;;;;4.43;1.73;;;;;;;-146.25;100.00;52096.50;2080535;28;27607;-69
2023/06/04 01:04:44;;;;;;;6.05;1.92;;;;;;;-146.25;100.00;52078.25;2088164;28;28321;-70
2023/06/04 01:06:08;;;;;;;9.10;2.20;;;;;;;-146.25;100.00;52078.25;2077722;28;20874;-70
2023/06/04 01:07:13;;;;;;;6.05;2.20;;;;;;;-146.25;100.00;52068.13;2077524;28;20061;-70
2023/06/04 01:08:15;;;;;;;6.00;2.38;;;;;;;-146.25;100.00;52090.44;2075484;28;21025;-70
2023/06/04 01:09:18;;;;;;;6.68;1.98;;;;;;;-146.25;100.00;52035.69;2064758;28;21793;-69
2023/06/04 01:10:22;;;;;;;6.05;2.00;;;;;;;-146.25;100.00;52076.22;2064405;28;35176;-69
2023/06/04 01:11:50;;;;;;;5.90;2.33;;;;;;;-146.25;100.00;52100.56;2080731;28;20038;-70
2023/06/04 01:12:52;;;;;;;5.00;2.17;;;;;;;-146.25;100.00;52047.84;2079118;28;31106;-70
2023/06/04 01:13:54;;;;;;;8.43;2.45;;;;;;;-146.25;100.00;52076.22;2081549;28;20034;-70
2023/06/04 01:14:56;;;;;;;7.53;1.67;;;;;;;-146.25;100.00;52074.22;2080014;28;24228;-69
2023/06/04 01:15:59;;;;;;;12.30;2.47;;;;;;;-146.25;100.00;52088.41;2080356;28;25305;-69
2023/06/04 01:17:38;;;;;;;10.00;2.20;;;;;;;-146.25;100.00;52060.00;2088385;28;20976;-69
2023/06/04 01:18:41;;;;;;;11.10;2.80;;;;;;;-146.25;100.00;52104.63;2079740;28;31355;-69
2023/06/04 01:20:00;;;;;;;6.38;2.53;;;;;;;-146.25;100.00;52058.00;2079322;28;38975;-69
2023/06/04 01:21:08;;;;;;;6.28;2.38;;;;;;;-146.25;100.00;52098.53;2080074;28;20146;-69
2023/06/04 01:22:28;;;;;;;5.43;2.30;;;;;;;-146.25;100.00;52049.88;2080750;28;20042;-70
2023/06/04 01:23:49;;;;;;;11.20;2.50;;;;;;;-146.25;100.00;52027.56;2080269;28;20077;-70
2023/06/04 01:24:55;;;;;;;9.20;2.35;;;;;;;-146.25;100.00;52098.53;2074360;28;33901;-68
2023/06/04 01:26:03;;;;;;;6.05;2.40;;;;;;;-146.25;100.00;52080.28;2074382;28;24745;-69
2023/06/04 01:27:06;;;;;;;8.55;2.40;;;;;;;-146.25;100.00;52068.13;2073615;28;32628;-68
2023/06/04 01:28:12;;;;;;;6.70;2.40;;;;;;;-146.25;100.00;52064.06;2080875;28;20045;-69
2023/06/04 01:29:14;;;;;;;7.50;2.15;;;;;;;-146.25;100.00;52062.03;2080822;28;29517;-68
2023/06/04 01:30:17;;;;;;;9.75;2.42;;;;;;;-146.25;100.00;52094.47;2080955;28;20574;-69
2023/06/04 01:31:25;;;;;;;6.78;2.33;;;;;;;-146.25;100.00;52080.28;2088511;28;20045;-68
2023/06/04 01:32:29;;;;;;;7.63;2.30;;;;;;;-146.25;100.00;52066.09;2087918;28;20071;-69
2023/06/04 01:33:31;;;;;;;6.47;2.60;;;;;;;-146.25;100.00;52096.50;2080939;28;20038;-68
2023/06/04 01:34:46;;;;;;;5.80;2.55;;;;;;;-146.25;100.00;52106.66;2080647;28;30408;-70
2023/06/04 01:35:49;;;;;;;8.23;2.80;;;;;;;-146.25;100.00;52084.34;2080132;28;21078;-69
2023/06/04 01:36:53;;;;;;;6.45;2.42;;;;;;;-146.25;100.00;52064.06;2079532;28;30546;-70
2023/06/04 01:37:57;;;;;;;6.47;2.30;;;;;;;-146.25;100.00;52076.22;2081207;28;20038;-69
2023/06/04 01:39:00;;;;;;;7.60;2.38;;;;;;;-146.25;100.00;52072.19;2080887;28;27591;-68
2023/06/04 01:40:03;;;;;;;7.40;2.53;;;;;;;-146.25;100.00;52066.09;2080330;28;32642;-68
2023/06/04 01:41:05;;;;;;;7.28;3.28;;;;;;;-146.25;100.00;52021.50;2080318;28;20041;-69
2023/06/04 01:42:08;;;;;;;6.15;2.83;;;;;;;-146.25;100.00;52062.03;2070854;28;37724;-69
2023/06/04 01:43:10;;;;;;;8.95;2.95;;;;;;;-146.25;100.00;52076.22;2072295;28;26427;-69
2023/06/04 01:44:11;;;;;;;6.95;2.95;;;;;;;-146.25;100.00;52066.09;2079351;28;33059;-70
2023/06/04 01:45:13;;;;;;;10.50;3.05;;;;;;;-146.25;100.00;52092.44;2080348;28;20889;-70
2023/06/04 01:46:15;;;;;;;6.55;3.00;;;;;;;-146.25;100.00;52062.03;2080123;28;24800;-70
2023/06/04 01:47:18;;;;;;;8.80;2.80;;;;;;;-146.25;100.00;52053.94;2080372;28;20050;-68
2023/06/04 01:48:19;;;;;;;7.72;3.05;;;;;;;-146.25;100.00;52055.97;2079171;28;28434;-68
2023/06/04 01:49:21;;;;;;;5.75;2.60;;;;;;;-146.25;100.00;52068.13;2080622;28;24143;-70
2023/06/04 01:50:26;;;;;;;7.05;2.65;;;;;;;-146.25;100.00;52076.22;2080696;28;20042;-69
2023/06/04 01:51:27;;;;;;;6.80;3.00;;;;;;;-146.25;100.00;52072.19;2080754;28;20069;-69
2023/06/04 01:52:29;;;;;;;10.93;3.45;;;;;;;-146.25;100.00;52088.41;2080183;28;34900;-70
2023/06/04 01:53:31;;;;;;;9.00;2.90;;;;;;;-146.25;100.00;52055.97;2080854;28;27196;-69
2023/06/04 01:54:37;;;;;;;6.47;2.83;;;;;;;-146.25;100.00;52074.22;2080115;28;31317;-69
2023/06/04 01:55:39;;;;;;;7.85;2.83;;;;;;;-146.25;100.00;52060.00;2081421;28;20038;-68
2023/06/04 01:56:41;;;;;;;9.55;2.40;;;;;;;-146.25;100.00;52053.94;2080987;28;20053;-69
2023/06/04 01:57:45;;;;;;;7.00;2.67;;;;;;;-146.25;100.00;52055.97;2080291;28;20038;-69
2023/06/04 01:58:47;;;;;;;8.15;2.78;;;;;;;-146.25;100.00;52098.53;2072146;28;20173;-69
2023/06/04 01:59:51;;;;;;;9.68;3.40;;;;;;;-146.25;100.00;52076.22;2080265;28;29220;-70
2023/06/04 02:00:55;;;;;;;6.05;2.75;;;;;;;-146.25;100.00;52074.22;2079083;28;33155;-69
2023/06/04 02:01:56;;;;;;;7.30;2.60;;;;;;;-146.25;100.00;52078.25;2080360;28;20049;-69
2023/06/04 02:02:59;;;;;;;6.97;3.00;;;;;;;-146.25;100.00;52076.22;2079829;28;23871;-69
2023/06/04 02:04:01;;;;;;;9.20;2.90;;;;;;;-146.25;100.00;52068.13;2080052;28;25965;-69
2023/06/04 02:05:08;;;;;;;8.20;2.80;;;;;;;-146.25;100.00;52128.94;2079117;28;25637;-69
2023/06/04 02:06:14;;;;;;;8.27;3.15;;;;;;;-146.25;100.00;52080.28;2080082;28;27103;-69
2023/06/04 02:07:21;;;;;;;6.47;2.83;;;;;;;-146.25;100.00;52094.47;2081238;28;20160;-69
2023/06/04 02:08:25;;;;;;;8.07;2.97;;;;;;;-146.25;100.00;52094.47;2080503;28;23655;-69
2023/06/04 02:09:27;;;;;;;9.45;3.15;;;;;;;-146.25;100.00;52066.09;2080512;28;20173;-69
2023/06/04 02:10:30;;;;;;;6.90;2.72;;;;;;;-146.25;100.00;52078.25;2080609;28;34575;-69
2023/06/04 02:11:32;;;;;;;6.43;2.45;;;;;;;-146.25;100.00;52060.00;2079772;28;20906;-70
2023/06/04 02:12:38;;;;;;;9.10;3.30;;;;;;;-146.25;100.00;52092.44;2072557;28;20038;-69
2023/06/04 02:13:40;;;;;;;8.07;3.30;;;;;;;-146.25;100.00;52082.31;2072698;28;20872;-69
2023/06/04 02:14:47;;;;;;;8.43;3.38;;;;;;;-146.25;100.00;52084.34;2080229;28;20069;-69
2023/06/04 02:15:49;;;;;;;5.90;2.67;;;;;;;-146.25;100.00;52070.16;2081005;28;25218;-69
2023/06/04 02:16:51;;;;;;;6.35;2.60;;;;;;;-146.25;100.00;52106.66;2079477;28;34506;-69
2023/06/04 02:18:20;;;;;;;6.65;3.47;;;;;;;-146.25;100.00;52112.72;2079661;28;28745;-68
2023/06/04 02:19:22;;;;;;;8.02;3.40;;;;;;;-146.25;100.00;52068.13;2087488;28;31796;-68
2023/06/04 02:20:26;;;;;;;7.05;3.33;;;;;;;-146.25;100.00;52090.44;2085431;28;32877;-69
2023/06/04 02:21:28;;;;;;;8.23;2.83;;;;;;;-146.25;100.00;52120.84;2079920;28;26110;-69
2023/06/04 02:22:32;;;;;;;6.78;3.00;;;;;;;-146.25;100.00;52078.25;2080974;28;20046;-68
2023/06/04 02:23:34;;;;;;;7.05;3.70;;;;;;;-146.25;100.00;52102.59;2080609;28;21774;-69
2023/06/04 02:24:38;;;;;;;11.95;3.92;;;;;;;-146.25;100.00;52080.28;2080956;28;20216;-69
2023/06/04 02:25:41;;;;;;;7.25;3.63;;;;;;;-146.25;100.00;52064.06;2079713;28;20900;-68
2023/06/04 02:26:43;;;;;;;8.65;3.60;;;;;;;-146.25;100.00;52090.44;2080424;28;20042;-69
2023/06/04 02:27:44;;;;;;;10.57;3.88;;;;;;;-146.25;100.00;52112.72;2080665;28;20901;-69
2023/06/04 02:28:48;;;;;;;8.52;3.53;;;;;;;-146.25;100.00;52092.44;2080618;28;32509;-70
2023/06/04 02:29:50;;;;;;;10.95;3.78;;;;;;;-146.25;100.00;52114.75;2079482;28;24854;-68
2023/06/04 02:30:52;;;;;;;10.80;3.88;;;;;;;-146.25;100.00;52114.75;2080157;28;27239;-69
2023/06/04 02:31:54;;;;;;;9.65;3.80;;;;;;;-146.25;100.00;52112.72;2079982;28;34725;-68
2023/06/04 02:32:57;;;;;;;12.07;4.45;;;;;;;-146.25;100.00;52094.47;2079471;28;28956;-69
2023/06/04 02:33:58;;;;;;;8.90;3.90;;;;;;;-146.25;100.00;52098.53;2071684;28;20043;-70
2023/06/04 02:35:01;;;;;;;10.07;3.85;;;;;;;-146.25;100.00;52051.91;2080116;28;30733;-70
2023/06/04 02:36:06;;;;;;;7.15;3.67;;;;;;;-146.25;100.00;52066.09;2080405;28;20046;-71
2023/06/04 02:37:08;;;;;;;10.98;4.53;;;;;;;-146.25;100.00;52084.34;2079388;28;27636;-71
2023/06/04 02:38:10;;;;;;;13.30;4.35;;;;;;;-146.25;100.00;52088.41;2079537;28;29800;-70
2023/06/04 02:39:15;;;;;;;11.25;4.53;;;;;;;-146.25;100.00;52080.28;2080940;28;20806;-71
2023/06/04 02:40:19;;;;;;;9.00;4.45;;;;;;;-146.25;100.00;52072.19;2079871;28;32413;-70
2023/06/04 02:41:23;;;;;;;14.55;4.15;;;;;;;-146.25;100.00;52072.19;2079639;28;20116;-70
2023/06/04 02:42:25;;;;;;;6.72;4.38;;;;;;;-146.25;100.00;52074.22;2079208;28;31461;-70
2023/06/04 02:43:29;;;;;;;6.03;3.63;;;;;;;-146.25;100.00;52102.59;2080240;28;33333;-70
2023/06/04 02:44:31;;;;;;;8.38;3.97;;;;;;;-146.25;100.00;52122.88;2079191;28;21987;-69
2023/06/04 02:45:33;;;;;;;8.65;4.55;;;;;;;-146.25;100.00;52082.31;2080290;28;20050;-68
2023/06/04 02:46:34;;;;;;;8.13;4.55;;;;;;;-146.25;100.00;52076.22;2080143;28;28137;-69
2023/06/04 02:47:36;;;;;;;11.30;4.88;;;;;;;-146.25;100.00;52124.91;2081058;28;20042;-69
2023/06/04 02:48:38;;;;;;;9.07;4.65;;;;;;;-146.25;100.00;52076.22;2079795;28;31337;-69
2023/06/04 02:49:40;;;;;;;10.63;4.90;;;;;;;-146.25;100.00;52100.56;2080351;28;25753;-68
2023/06/04 02:50:42;;;;;;;10.68;5.10;;;;;;;-146.25;100.00;52118.81;2080475;28;20944;-70
2023/06/04 02:51:44;;;;;;;8.18;4.68;;;;;;;-146.25;100.00;52110.69;2079785;28;21165;-69
2023/06/04 02:52:46;;;;;;;12.57;5.38;;;;;;;-146.25;100.00;52098.53;2079644;28;20037;-70
2023/06/04 02:53:48;;;;;;;10.23;5.95;;;;;;;-146.25;100.00;52080.28;2079546;28;33265;-70
2023/06/04 02:54:50;;;;;;;11.40;5.57;;;;;;;-146.25;100.00;52116.78;2079335;28;27826;-71
2023/06/04 02:55:54;;;;;;;11.32;4.50;;;;;;;-146.25;100.00;52076.22;2080957;28;20141;-71
2023/06/04 02:56:55;;;;;;;9.27;4.32;;;;;;;-146.25;100.00;52090.44;2080395;28;33144;-69
2023/06/04 02:57:57;;;;;;;10.43;5.10;;;;;;;-146.25;100.00;52092.44;2080574;28;21359;-69
2023/06/04 02:59:01;;;;;;;10.13;4.70;;;;;;;-146.25;100.00;52074.22;2080186;28;22493;-70
2023/06/04 03:00:11;;;;;;;11.98;5.30;;;;;;;-146.25;100.00;52060.00;2078598;28;24600;-69
2023/06/04 03:01:19;;;;;;;12.52;5.50;;;;;;;-146.25;100.00;52092.44;2080224;28;20046;-68
2023/06/04 03:02:21;;;;;;;11.88;5.07;;;;;;;-146.25;100.00;52076.22;2087686;28;20148;-69
2023/06/04 03:03:23;;;;;;;13.02;5.47;;;;;;;-146.25;100.00;52096.50;2079101;28;20046;-68
2023/06/04 03:04:25;;;;;;;8.77;4.95;;;;;;;-146.25;100.00;52082.31;2079547;28;29875;-68
2023/06/04 03:05:27;;;;;;;9.52;5.00;;;;;;;-146.25;100.00;52110.69;2087517;28;28988;-70
2023/06/04 03:06:29;;;;;;;11.13;5.35;;;;;;;-146.25;100.00;52086.38;2079627;28;24104;-69
2023/06/04 03:07:33;;;;;;;10.50;5.70;;;;;;;-146.25;100.00;52090.44;2071211;28;30265;-70
2023/06/04 03:08:35;;;;;;;7.75;5.40;;;;;;;-146.25;100.00;52090.44;2080041;28;20168;-70
2023/06/04 03:09:37;;;;;;;7.97;4.72;;;;;;;-146.25;100.00;52096.50;2079811;28;28018;-70
2023/06/04 03:10:39;;;;;;;7.13;4.72;;;;;;;-146.25;100.00;52086.38;2080025;28;20088;-69
2023/06/04 03:11:41;;;;;;;9.48;4.88;;;;;;;-146.25;100.00;52112.72;2079271;28;29473;-70
2023/06/04 03:12:43;;;;;;;11.70;4.55;;;;;;;-146.25;100.00;52080.28;2079940;28;20966;-69
2023/06/04 03:13:45;;;;;;;11.23;5.22;;;;;;;-146.25;100.00;52108.66;2079061;28;32343;-70
2023/06/04 03:14:47;;;;;;;15.27;4.88;;;;;;;-146.25;100.00;52068.13;2080737;28;20038;-69
2023/06/04 03:15:49;;;;;;;9.90;5.18;;;;;;;-146.25;100.00;52090.44;2079710;28;27248;-69
2023/06/04 03:16:52;;;;;;;8.63;4.90;;;;;;;-146.25;100.00;52135.03;2080372;28;30173;-69
2023/06/04 03:17:54;;;;;;;7.78;4.40;;;;;;;-146.25;100.00;52088.41;2079341;28;24831;-70
2023/06/04 03:18:56;;;;;;;9.32;4.82;;;;;;;-146.25;100.00;52112.72;2080645;28;20923;-69
2023/06/04 03:19:58;;;;;;;10.23;4.78;;;;;;;-146.25;100.00;52114.75;2080456;28;20865;-69
2023/06/04 03:21:04;;;;;;;7.95;4.82;;;;;;;-146.25;100.00;52094.47;2080580;28;25198;-70
2023/06/04 03:22:08;;;;;;;8.13;4.97;;;;;;;-146.25;100.00;52122.88;2079331;28;41408;-69
2023/06/04 03:23:10;;;;;;;9.48;4.68;;;;;;;-146.25;100.00;52104.63;2079755;28;20046;-69
2023/06/04 03:24:12;;;;;;;11.30;4.90;;;;;;;-146.25;100.00;52110.69;2079231;28;28107;-69
2023/06/04 03:25:14;;;;;;;8.82;4.28;;;;;;;-146.25;100.00;52096.50;2080337;28;20069;-69
2023/06/04 03:26:16;;;;;;;7.28;4.50;;;;;;;-146.25;100.00;52092.44;2071445;28;20437;-69
2023/06/04 03:27:19;;;;;;;9.18;4.50;;;;;;;-146.25;100.00;52096.50;2079717;28;25011;-69
2023/06/04 03:28:20;;;;;;;12.55;5.68;;;;;;;-146.25;100.00;52145.16;2079575;28;20042;-70
2023/06/04 03:29:22;;;;;;;11.50;4.80;;;;;;;-146.25;100.00;52100.56;2079902;28;20173;-70
2023/06/04 03:30:24;;;;;;;9.20;4.75;;;;;;;-146.25;100.00;52130.97;2079187;28;21578;-70
2023/06/04 03:31:33;;;;;;;11.95;5.10;;;;;;;-146.25;100.00;52110.69;2080686;28;20038;-70
2023/06/04 03:32:35;;;;;;;9.70;5.25;;;;;;;-146.25;100.00;52104.63;2079389;28;20140;-71
2023/06/04 03:33:37;;;;;;;9.98;4.88;;;;;;;-146.25;100.00;52090.44;2080128;28;20120;-71
2023/06/04 03:34:40;;;;;;;7.50;4.63;;;;;;;-146.25;100.00;52114.75;2079046;28;20076;-70
2023/06/04 03:35:42;;;;;;;10.50;5.07;;;;;;;-146.25;100.00;52128.94;2079673;28;21968;-70
2023/06/04 03:36:44;;;;;;;11.35;5.07;;;;;;;-146.25;100.00;52078.25;2079837;28;26133;-70
2023/06/04 03:37:46;;;;;;;7.63;4.32;;;;;;;-146.25;100.00;52080.28;2079755;28;20164;-70
2023/06/04 03:38:48;;;;;;;9.43;4.43;;;;;;;-146.25;100.00;52068.13;2079170;28;20046;-70
2023/06/04 03:39:53;;;;;;;11.27;4.60;;;;;;;-146.25;100.00;52110.69;2087463;28;20034;-70
2023/06/04 03:40:59;;;;;;;8.43;4.50;;;;;;;-146.25;100.00;52110.69;2079863;28;26590;-70
2023/06/04 03:42:04;;;;;;;10.95;5.25;;;;;;;-146.25;100.00;52088.41;2080008;28;20228;-70
2023/06/04 03:43:07;;;;;;;8.50;4.93;;;;;;;-146.25;100.00;52108.66;2070570;28;20052;-70
2023/06/04 03:44:09;;;;;;;13.80;5.55;;;;;;;-146.25;100.00;52080.28;2071392;28;20151;-70
2023/06/04 03:45:10;;;;;;;12.55;5.78;;;;;;;-146.25;100.00;52104.63;2079031;28;20049;-70
2023/06/04 03:46:12;;;;;;;12.93;5.88;;;;;;;-146.25;100.00;52094.47;2071012;28;23968;-70
2023/06/04 03:47:14;;;;;;;11.27;5.60;;;;;;;-146.25;100.00;52130.97;2079096;28;20164;-70
2023/06/04 03:48:16;;;;;;;10.05;5.25;;;;;;;-146.25;100.00;52122.88;2079300;28;20030;-70
2023/06/04 03:49:19;;;;;;;10.68;5.50;;;;;;;-146.25;100.00;52112.72;2078947;28;20049;-70
2023/06/04 03:50:25;;;;;;;9.02;5.03;;;;;;;-146.25;100.00;52100.56;2079309;28;20160;-70
2023/06/04 03:51:28;;;;;;;10.70;5.78;;;;;;;-146.25;100.00;52151.25;2071458;28;20065;-70
2023/06/04 03:52:30;;;;;;;15.00;6.13;;;;;;;-146.25;100.00;52135.03;2071635;28;20043;-70
2023/06/04 03:53:34;;;;;;;8.05;5.25;;;;;;;-146.25;100.00;52106.66;2079434;28;20033;-70
2023/06/04 03:54:36;;;;;;;10.13;5.50;;;;;;;-146.25;100.00;52098.53;2087855;28;20056;-70
2023/06/04 03:55:39;;;;;;;11.85;5.50;;;;;;;-146.25;100.00;52092.44;2079377;28;20092;-71
2023/06/04 03:56:46;;;;;;;10.50;6.03;;;;;;;-146.25;100.00;52122.88;2079853;28;20046;-70
2023/06/04 03:57:48;;;;;;;6.30;4.15;;;;;;;-146.25;100.00;52084.34;2087451;28;20143;-70
2023/06/04 03:58:50;;;;;;;11.32;5.25;;;;;;;-146.25;100.00;52118.81;2079618;28;20155;-70
2023/06/04 03:59:52;;;;;;;10.90;5.72;;;;;;;-146.25;100.00;52141.13;2079374;28;22362;-70
2023/06/04 04:00:54;;;;;;;8.20;5.13;;;;;;;-146.25;100.00;52133.00;2079507;28;20050;-68
2023/06/04 04:01:58;;;;;;;9.43;4.50;;;;;;;-146.25;100.00;52128.94;2079592;28;20049;-70
2023/06/04 04:03:01;;;;;;;10.98;4.70;;;;;;;-146.25;100.00;52130.97;2079420;28;20080;-68
2023/06/04 04:04:05;;;;;;;9.88;4.60;;;;;;;-146.25;100.00;52133.00;2071643;28;20050;-70
2023/06/04 04:05:09;;;;;;;8.90;4.20;;;;;;;-146.25;100.00;52130.97;2070966;28;26866;-70
2023/06/04 04:06:11;;;;;;;6.18;3.15;;;;;;;-146.25;98.24;52130.97;2071922;28;20089;-70
2023/06/04 04:07:16;;;;;;;6.63;3.00;;;;;;;-146.25;96.22;52090.44;2079844;28;20153;-70
2023/06/04 04:08:21;;;;;;;8.18;3.00;;;;;;;-146.25;92.94;52157.34;2079407;28;20042;-71
2023/06/04 04:09:23;;;;;;;9.13;2.90;;;;;;;-146.25;89.51;52118.81;2071628;28;20035;-70
2023/06/04 04:10:24;;;;;;;8.48;2.97;;;;;;;-146.25;86.78;52112.72;2071040;28;27605;-70
2023/06/04 04:11:26;;;;;;;6.30;2.60;;;;;;;-146.25;87.42;52120.84;2069931;28;32081;-70
2023/06/04 04:12:29;;;;;;;6.95;2.38;;;;;;;-146.25;83.60;52122.88;2079141;28;20038;-70
2023/06/04 04:13:31;;;;;;;5.38;2.30;;;;;;;-146.25;83.38;52122.88;2079360;28;20073;-70
2023/06/04 04:14:33;;;;;;;5.38;2.08;;;;;;;-146.25;79.52;52096.50;2079185;28;20089;-71
2023/06/04 04:15:37;;;;;;;6.68;2.05;;;;;;;-146.25;77.54;52118.81;2079546;28;20056;-71
2023/06/04 04:16:39;;;;;;;6.07;2.15;;;;;;;-146.25;77.53;52137.06;2071285;28;20085;-71
2023/06/04 04:17:44;;;;;;;5.22;2.10;;;;;;;-146.25;74.20;52124.91;2079446;28;20038;-69
2023/06/04 04:18:48;;;;;;;5.00;1.90;;;;;;;-146.25;74.11;52100.56;2079533;28;20062;-70
2023/06/04 04:19:50;;;;;;;5.55;1.85;;;;;;;-146.25;72.93;52130.97;2078991;28;27388;-70
2023/06/04 04:20:52;;;;;;;5.05;1.85;;;;;;;-146.25;72.69;52124.91;2079268;28;20050;-69
2023/06/04 04:21:54;;;;;;;7.10;2.05;;;;;;;-146.25;68.90;52112.72;2079326;28;20826;-70
2023/06/04 04:22:55;;;;;;;5.25;1.73;;;;;;;-146.25;68.55;52157.34;2079418;28;20053;-69
2023/06/04 04:24:02;;;;;;;4.15;1.60;;;;;;;-146.25;68.09;52133.00;2079493;28;20046;-69
2023/06/04 04:25:04;;;;;;;6.93;1.60;;;;;;;-146.25;65.95;52098.53;2087089;28;24473;-70
2023/06/04 04:26:07;;;;;;;5.35;1.75;;;;;;;-146.25;69.23;52139.09;2078939;28;30345;-69
2023/06/04 04:27:10;;;;;;;4.50;1.67;;;;;;;-146.25;65.83;52126.91;2071640;28;20054;-71
2023/06/04 04:28:17;;;;;;;6.70;1.67;;;;;;;-146.25;62.89;52108.66;2079579;28;20961;-68
2023/06/04 04:29:24;;;;;;;3.90;1.30;;;;;;;-146.25;64.39;52145.16;2079464;28;20053;-69
2023/06/04 04:30:28;;;;;;;4.68;1.30;;;;;;;-146.25;62.55;52114.75;2071772;28;20066;-70
2023/06/04 04:31:30;;;;;;;3.80;1.30;;;;;;;-146.25;59.50;52096.50;2071278;28;20082;-69
2023/06/04 04:32:32;;;;;;;3.88;1.40;;;;;;;-146.25;62.50;52100.56;2070787;28;22144;-70
2023/06/04 04:33:39;;;;;;;5.05;1.60;;;;;;;-146.25;62.82;52116.78;2071090;28;27355;-68
2023/06/04 04:34:54;;;;;;;2.75;1.10;;;;;;;-146.25;60.49;52092.44;2080076;28;20436;-70
2023/06/04 04:36:02;;;;;;;4.03;1.13;;;;;;;-146.25;60.17;52104.63;2079490;28;20200;-69
2023/06/04 04:37:08;;;;;;;4.63;1.40;;;;;;;-146.25;60.01;52112.72;2080272;28;20046;-71
2023/06/04 04:38:10;;;;;;;4.03;1.27;;;;;;;-146.25;59.09;52124.91;2071865;28;22000;-70
2023/06/04 04:39:26;;;;;;;2.90;1.05;;;;;;;-146.25;59.09;52120.84;2072062;28;20070;-70
2023/06/04 04:40:31;;;;;;;4.60;1.25;;;;;;;-146.25;58.68;52088.41;2072631;28;20043;-69
2023/06/04 04:41:34;;;;;;;3.63;0.73;;;;;;;-146.25;57.89;52098.53;2071956;28;20846;-70
2023/06/04 04:42:39;;;;;;;7.28;1.30;;;;;;;-146.25;58.94;52124.91;2079468;28;20168;-71
2023/06/04 04:43:43;;;;;;;2.88;0.77;;;;;;;-146.25;57.65;52124.91;2079101;28;20095;-70
2023/06/04 04:44:53;;;;;;;3.63;1.00;;;;;;;-146.25;56.15;52060.00;2080820;28;20076;-69
2023/06/04 04:45:59;;;;;;;4.13;1.00;;;;;;;-146.25;56.90;52094.47;2079310;28;20053;-70
2023/06/04 04:47:02;;;;;;;3.53;0.70;;;;;;;-146.25;53.12;52076.22;2079653;28;20077;-70
2023/06/04 04:48:03;;;;;;;3.78;1.00;;;;;;;-146.25;55.77;52070.16;2079133;28;20901;-69
2023/06/04 04:49:06;;;;;;;3.45;0.98;;;;;;;-146.25;56.33;52126.91;2070975;28;20046;-71
2023/06/04 04:50:08;;;;;;;4.57;0.88;;;;;;;-146.25;55.46;52104.63;2078812;28;24989;-69